createdAt,value
2019-06-27T00:00:09.332Z,23.96
2019-06-27T00:01:09.309Z,23.97
2019-06-27T00:02:09.298Z,23.94
2019-06-27T00:03:09.296Z,23.89
2019-06-27T00:04:09.275Z,23.87
2019-06-27T00:05:09.289Z,23.82
2019-06-27T00:06:09.272Z,23.89
2019-06-27T00:07:09.244Z,23.93
2019-06-27T00:08:09.233Z,23.89
2019-06-27T00:09:09.219Z,23.89
2019-06-27T00:10:09.211Z,23.90
2019-06-27T00:11:09.219Z,23.89
2019-06-27T00:12:09.190Z,23.89
2019-06-27T00:13:09.180Z,23.92
2019-06-27T00:14:09.167Z,23.84
2019-06-27T00:15:09.162Z,23.86
2019-06-27T00:16:09.227Z,23.92
2019-06-27T00:17:09.136Z,23.86
2019-06-27T00:18:09.127Z,23.89
2019-06-27T00:19:09.116Z,24.02
2019-06-27T00:20:09.105Z,23.96
2019-06-27T00:21:09.113Z,23.94
2019-06-27T00:22:09.093Z,23.87
2019-06-27T00:23:09.072Z,23.82
2019-06-27T00:24:09.061Z,23.71
2019-06-27T00:25:09.066Z,23.68
2019-06-27T00:26:09.040Z,23.68
2019-06-27T00:27:09.031Z,23.54
2019-06-27T00:28:09.021Z,23.52
2019-06-27T00:29:09.009Z,23.52
2019-06-27T00:30:09.021Z,23.50
2019-06-27T00:31:08.990Z,23.49
2019-06-27T00:32:08.974Z,23.37
2019-06-27T00:33:08.963Z,23.34
2019-06-27T00:34:08.954Z,23.50
2019-06-27T00:35:08.944Z,23.60
2019-06-27T00:36:08.958Z,23.69
2019-06-27T00:37:08.923Z,23.56
2019-06-27T00:38:08.913Z,23.39
2019-06-27T00:39:08.897Z,23.39
2019-06-27T00:40:08.925Z,23.35
2019-06-27T00:41:08.878Z,23.21
2019-06-27T00:42:08.867Z,23.14
2019-06-27T00:43:08.857Z,23.11
2019-06-27T00:44:08.874Z,23.14
2019-06-27T00:45:08.852Z,23.01
2019-06-27T00:46:08.856Z,23.04
2019-06-27T00:47:08.816Z,22.99
2019-06-27T00:48:08.801Z,23.12
2019-06-27T00:49:08.790Z,23.16
2019-06-27T00:50:08.781Z,23.16
2019-06-27T00:51:08.772Z,23.18
2019-06-27T00:52:08.783Z,23.15
2019-06-27T00:53:08.749Z,23.04
2019-06-27T00:54:08.745Z,23.03
2019-06-27T00:55:08.726Z,23.04
2019-06-27T00:56:08.729Z,22.97
2019-06-27T00:57:13.817Z,22.88
2019-06-27T00:58:09.711Z,22.93
2019-06-27T00:59:08.682Z,22.91
2019-06-27T01:00:08.673Z,22.88
2019-06-27T01:01:08.659Z,22.93
2019-06-27T01:02:08.651Z,22.81
2019-06-27T01:03:08.658Z,22.79
2019-06-27T01:04:08.636Z,22.79
2019-06-27T01:05:08.627Z,22.81
2019-06-27T01:06:08.609Z,22.76
2019-06-27T01:07:08.596Z,22.78
2019-06-27T01:08:08.611Z,22.74
2019-06-27T01:09:08.574Z,22.88
2019-06-27T01:10:08.563Z,22.79
2019-06-27T01:11:08.574Z,22.76
2019-06-27T01:12:08.545Z,22.69
2019-06-27T01:13:08.531Z,22.70
2019-06-27T01:14:08.541Z,22.70
2019-06-27T01:15:08.509Z,22.64
2019-06-27T01:16:08.516Z,22.63
2019-06-27T01:17:08.490Z,22.54
2019-06-27T01:18:08.477Z,22.57
2019-06-27T01:19:08.475Z,22.60
2019-06-27T01:20:08.463Z,22.45
2019-06-27T01:21:08.464Z,22.44
2019-06-27T01:22:08.435Z,22.44
2019-06-27T01:23:08.422Z,22.45
2019-06-27T01:24:08.417Z,22.51
2019-06-27T01:25:08.401Z,22.42
2019-06-27T01:26:08.420Z,22.45
2019-06-27T01:27:08.378Z,22.44
2019-06-27T01:28:08.371Z,22.36
2019-06-27T01:29:08.365Z,22.33
2019-06-27T01:30:08.346Z,22.30
2019-06-27T01:31:08.356Z,22.31
2019-06-27T01:32:08.325Z,22.31
2019-06-27T01:33:08.316Z,22.39
2019-06-27T01:34:08.306Z,22.31
2019-06-27T01:35:08.293Z,22.19
2019-06-27T01:36:08.301Z,22.23
2019-06-27T01:37:08.272Z,22.19
2019-06-27T01:38:08.259Z,22.17
2019-06-27T01:39:08.251Z,22.19
2019-06-27T01:40:08.240Z,22.11
2019-06-27T01:41:08.247Z,22.06
2019-06-27T01:42:08.216Z,21.99
2019-06-27T01:43:08.205Z,21.93
2019-06-27T01:44:08.214Z,21.89
2019-06-27T01:45:08.183Z,21.82
2019-06-27T01:46:08.175Z,21.82
2019-06-27T01:47:08.164Z,21.82
2019-06-27T01:48:08.154Z,21.77
2019-06-27T01:49:08.139Z,21.81
2019-06-27T01:50:08.149Z,21.79
2019-06-27T01:51:08.123Z,21.85
2019-06-27T01:52:08.110Z,21.98
2019-06-27T01:53:08.115Z,21.83
2019-06-27T01:54:08.096Z,21.83
2019-06-27T01:55:08.076Z,21.85
2019-06-27T01:56:08.066Z,21.82
2019-06-27T01:57:08.053Z,21.86
2019-06-27T01:58:08.059Z,21.85
2019-06-27T01:59:08.038Z,21.94
2019-06-27T02:00:08.024Z,21.79
2019-06-27T02:01:08.010Z,21.86
2019-06-27T02:02:07.999Z,21.83
2019-06-27T02:03:07.988Z,21.73
2019-06-27T02:04:07.997Z,21.89
2019-06-27T02:05:07.966Z,21.81
2019-06-27T02:06:07.957Z,21.81
2019-06-27T02:07:07.955Z,21.71
2019-06-27T02:08:07.932Z,21.63
2019-06-27T02:09:08.100Z,21.59
2019-06-27T02:10:07.912Z,21.56
2019-06-27T02:11:07.906Z,21.53
2019-06-27T02:12:07.888Z,21.36
2019-06-27T02:13:07.877Z,21.37
2019-06-27T02:14:07.867Z,21.28
2019-06-27T02:15:07.875Z,21.27
2019-06-27T02:16:07.883Z,21.42
2019-06-27T02:17:07.832Z,21.59
2019-06-27T02:18:07.820Z,21.66
2019-06-27T02:19:07.812Z,21.63
2019-06-27T02:20:07.803Z,21.56
2019-06-27T02:21:07.807Z,21.53
2019-06-27T02:22:07.778Z,21.45
2019-06-27T02:23:07.769Z,21.37
2019-06-27T02:24:07.761Z,21.43
2019-06-27T02:25:07.744Z,21.31
2019-06-27T02:26:07.757Z,21.31
2019-06-27T02:27:07.725Z,21.27
2019-06-27T02:28:07.709Z,21.31
2019-06-27T02:29:07.697Z,21.33
2019-06-27T02:30:07.699Z,21.31
2019-06-27T02:31:07.709Z,21.51
2019-06-27T02:32:07.667Z,21.52
2019-06-27T02:33:07.664Z,21.98
2019-06-27T02:34:07.660Z,22.01
2019-06-27T02:35:07.642Z,22.06
2019-06-27T02:36:07.630Z,22.02
2019-06-27T02:37:07.782Z,21.98
2019-06-27T02:38:07.601Z,21.86
2019-06-27T02:39:07.590Z,21.73
2019-06-27T02:40:07.602Z,21.61
2019-06-27T02:41:07.568Z,21.48
2019-06-27T02:42:07.562Z,21.37
2019-06-27T02:43:07.568Z,21.34
2019-06-27T02:44:07.556Z,21.24
2019-06-27T02:45:07.533Z,21.12
2019-06-27T02:46:07.541Z,21.08
2019-06-27T02:47:07.505Z,21.00
2019-06-27T02:48:07.520Z,20.90
2019-06-27T02:49:07.481Z,20.90
2019-06-27T02:50:07.488Z,20.96
2019-06-27T02:51:07.458Z,20.97
2019-06-27T02:52:07.447Z,21.00
2019-06-27T02:53:07.463Z,21.05
2019-06-27T02:54:07.421Z,21.01
2019-06-27T02:55:07.425Z,20.91
2019-06-27T02:56:07.401Z,20.91
2019-06-27T02:57:07.410Z,20.91
2019-06-27T02:58:27.876Z,20.91
2019-06-27T02:59:08.366Z,20.96
2019-06-27T03:00:07.370Z,20.93
2019-06-27T03:01:07.345Z,20.94
2019-06-27T03:02:07.333Z,20.94
2019-06-27T03:03:07.342Z,20.94
2019-06-27T03:04:07.310Z,20.82
2019-06-27T03:05:07.300Z,20.83
2019-06-27T03:06:07.284Z,20.81
2019-06-27T03:07:07.276Z,20.85
2019-06-27T03:08:07.267Z,20.90
2019-06-27T03:09:07.272Z,20.93
2019-06-27T03:10:07.243Z,21.00
2019-06-27T03:11:07.229Z,20.97
2019-06-27T03:12:07.217Z,20.90
2019-06-27T03:13:07.209Z,20.88
2019-06-27T03:14:07.197Z,20.93
2019-06-27T03:15:07.221Z,20.82
2019-06-27T03:16:07.176Z,20.79
2019-06-27T03:17:07.166Z,20.61
2019-06-27T03:18:07.158Z,20.54
2019-06-27T03:19:07.164Z,20.64
2019-06-27T03:20:07.130Z,20.58
2019-06-27T03:21:07.131Z,20.66
2019-06-27T03:22:07.285Z,20.68
2019-06-27T03:23:07.102Z,20.61
2019-06-27T03:24:07.092Z,20.78
2019-06-27T03:25:07.103Z,21.01
2019-06-27T03:26:07.068Z,21.12
2019-06-27T03:27:07.078Z,21.00
2019-06-27T03:28:07.212Z,20.93
2019-06-27T03:29:07.037Z,20.79
2019-06-27T03:30:07.180Z,20.78
2019-06-27T03:31:07.016Z,20.76
2019-06-27T03:32:07.003Z,20.78
2019-06-27T03:33:07.005Z,20.66
2019-06-27T03:34:07.000Z,20.57
2019-06-27T03:35:06.967Z,20.57
2019-06-27T03:36:06.961Z,20.54
2019-06-27T03:37:06.947Z,20.51
2019-06-27T03:38:06.943Z,20.48
2019-06-27T03:39:06.928Z,20.42
2019-06-27T03:40:06.935Z,20.46
2019-06-27T03:41:06.915Z,20.37
2019-06-27T03:42:06.892Z,20.33
2019-06-27T03:43:06.923Z,20.35
2019-06-27T03:44:06.875Z,20.35
2019-06-27T03:45:06.866Z,20.34
2019-06-27T03:46:07.028Z,20.40
2019-06-27T03:47:06.840Z,20.31
2019-06-27T03:48:06.835Z,20.30
2019-06-27T03:49:06.824Z,20.22
2019-06-27T03:50:06.808Z,20.13
2019-06-27T03:51:06.797Z,20.25
2019-06-27T03:52:06.861Z,20.23
2019-06-27T03:53:06.807Z,20.30
2019-06-27T03:54:06.763Z,20.34
2019-06-27T03:55:06.758Z,20.41
2019-06-27T03:56:06.742Z,20.54
2019-06-27T03:57:06.731Z,20.63
2019-06-27T03:58:06.725Z,20.61
2019-06-27T03:59:12.824Z,20.64
2019-06-27T04:00:07.722Z,20.58
2019-06-27T04:01:06.691Z,20.60
2019-06-27T04:02:06.686Z,20.58
2019-06-27T04:03:06.669Z,20.64
2019-06-27T04:04:06.661Z,20.61
2019-06-27T04:05:06.673Z,20.53
2019-06-27T04:06:06.637Z,20.46
2019-06-27T04:07:06.641Z,20.44
2019-06-27T04:08:06.616Z,20.34
2019-06-27T04:09:06.630Z,20.44
2019-06-27T04:10:06.592Z,20.40
2019-06-27T04:11:06.613Z,20.38
2019-06-27T04:12:06.591Z,20.38
2019-06-27T04:13:06.558Z,20.31
2019-06-27T04:14:06.558Z,20.48
2019-06-27T04:15:06.580Z,20.35
2019-06-27T04:16:06.527Z,20.48
2019-06-27T04:17:06.514Z,20.31
2019-06-27T04:18:06.503Z,20.35
2019-06-27T04:19:06.491Z,20.50
2019-06-27T04:20:06.498Z,20.53
2019-06-27T04:21:06.473Z,20.54
2019-06-27T04:22:06.465Z,20.58
2019-06-27T04:23:06.448Z,20.60
2019-06-27T04:24:06.445Z,20.54
2019-06-27T04:25:06.423Z,20.50
2019-06-27T04:26:06.442Z,20.51
2019-06-27T04:27:06.415Z,20.58
2019-06-27T04:28:06.410Z,20.48
2019-06-27T04:29:06.549Z,20.46
2019-06-27T04:30:06.376Z,20.44
2019-06-27T04:31:06.368Z,20.51
2019-06-27T04:32:06.357Z,20.64
2019-06-27T04:33:06.338Z,20.54
2019-06-27T04:34:06.329Z,20.54
2019-06-27T04:35:06.343Z,20.57
2019-06-27T04:36:06.334Z,20.63
2019-06-27T04:37:06.294Z,20.73
2019-06-27T04:38:06.284Z,20.64
2019-06-27T04:39:06.272Z,20.63
2019-06-27T04:40:06.287Z,20.58
2019-06-27T04:41:06.246Z,20.76
2019-06-27T04:42:06.241Z,20.64
2019-06-27T04:43:06.554Z,20.73
2019-06-27T04:44:06.214Z,20.69
2019-06-27T04:45:06.209Z,20.64
2019-06-27T04:46:06.232Z,20.68
2019-06-27T04:47:06.179Z,20.66
2019-06-27T04:48:06.168Z,20.56
2019-06-27T04:49:06.157Z,20.73
2019-06-27T04:50:06.161Z,20.75
2019-06-27T04:51:06.137Z,20.81
2019-06-27T04:52:06.153Z,20.79
2019-06-27T04:53:06.117Z,20.66
2019-06-27T04:54:06.111Z,20.64
2019-06-27T04:55:06.087Z,20.60
2019-06-27T04:56:06.078Z,20.50
2019-06-27T04:57:06.067Z,20.41
2019-06-27T04:58:06.091Z,20.53
2019-06-27T04:59:06.046Z,20.68
2019-06-27T05:00:06.073Z,20.60
2019-06-27T05:01:06.044Z,20.78
2019-06-27T05:02:06.016Z,20.97
2019-06-27T05:03:06.001Z,21.01
2019-06-27T05:04:06.042Z,21.16
2019-06-27T05:05:05.979Z,21.15
2019-06-27T05:06:05.987Z,21.05
2019-06-27T05:07:05.960Z,20.98
2019-06-27T05:08:05.964Z,20.85
2019-06-27T05:09:05.943Z,20.96
2019-06-27T05:10:05.953Z,20.97
2019-06-27T05:11:05.919Z,21.06
2019-06-27T05:12:05.905Z,20.98
2019-06-27T05:13:05.912Z,20.82
2019-06-27T05:14:05.880Z,20.88
2019-06-27T05:15:05.871Z,20.98
2019-06-27T05:16:05.878Z,20.94
2019-06-27T05:17:05.849Z,21.09
2019-06-27T05:18:05.865Z,21.46
2019-06-27T05:19:05.828Z,21.81
2019-06-27T05:20:05.818Z,21.74
2019-06-27T05:21:05.807Z,21.53
2019-06-27T05:22:05.796Z,21.43
2019-06-27T05:23:05.785Z,21.38
2019-06-27T05:24:05.799Z,21.33
2019-06-27T05:25:05.761Z,21.31
2019-06-27T05:26:05.782Z,21.28
2019-06-27T05:27:05.748Z,21.38
2019-06-27T05:28:05.741Z,21.30
2019-06-27T05:29:05.762Z,21.24
2019-06-27T05:30:09.910Z,21.19
2019-06-27T05:31:05.694Z,21.21
2019-06-27T05:32:05.683Z,21.21
2019-06-27T05:33:05.676Z,21.19
2019-06-27T05:34:05.666Z,21.12
2019-06-27T05:35:05.651Z,21.21
2019-06-27T05:36:05.683Z,21.24
2019-06-27T05:37:05.637Z,21.22
2019-06-27T05:38:05.618Z,21.24
2019-06-27T05:39:05.618Z,21.28
2019-06-27T05:40:05.594Z,21.26
2019-06-27T05:41:05.584Z,21.42
2019-06-27T05:42:05.594Z,21.49
2019-06-27T05:43:05.562Z,21.83
2019-06-27T05:44:05.551Z,21.96
2019-06-27T05:45:05.538Z,21.94
2019-06-27T05:46:05.551Z,21.89
2019-06-27T05:47:05.517Z,21.75
2019-06-27T05:48:05.532Z,21.68
2019-06-27T05:49:05.501Z,21.68
2019-06-27T05:50:05.486Z,21.56
2019-06-27T05:51:05.517Z,21.46
2019-06-27T05:52:05.464Z,21.45
2019-06-27T05:53:05.474Z,21.49
2019-06-27T05:54:05.444Z,21.46
2019-06-27T05:55:05.432Z,21.38
2019-06-27T05:56:05.465Z,21.37
2019-06-27T05:57:05.407Z,21.34
2019-06-27T05:58:05.403Z,21.26
2019-06-27T05:59:05.387Z,21.28
2019-06-27T06:00:05.383Z,21.42
2019-06-27T06:01:05.368Z,21.31
2019-06-27T06:02:05.418Z,21.27
2019-06-27T06:03:05.369Z,21.36
2019-06-27T06:04:05.340Z,21.48
2019-06-27T06:05:05.388Z,21.43
2019-06-27T06:06:05.384Z,21.38
2019-06-27T06:07:05.336Z,21.45
2019-06-27T06:08:05.301Z,21.42
2019-06-27T06:09:05.302Z,21.38
2019-06-27T06:10:05.282Z,21.38
2019-06-27T06:11:05.289Z,21.38
2019-06-27T06:12:05.270Z,21.55
2019-06-27T06:13:05.272Z,21.59
2019-06-27T06:14:05.270Z,21.66
2019-06-27T06:15:05.232Z,21.66
2019-06-27T06:16:05.243Z,21.73
2019-06-27T06:17:05.203Z,21.89
2019-06-27T06:18:05.260Z,21.85
2019-06-27T06:19:05.177Z,21.82
2019-06-27T06:20:05.169Z,22.04
2019-06-27T06:21:05.230Z,21.99
2019-06-27T06:22:05.422Z,22.04
2019-06-27T06:23:05.236Z,22.09
2019-06-27T06:24:05.187Z,22.21
2019-06-27T06:25:05.115Z,22.20
2019-06-27T06:26:05.209Z,22.20
2019-06-27T06:27:05.142Z,22.19
2019-06-27T06:28:05.167Z,22.35
2019-06-27T06:29:05.082Z,22.52
2019-06-27T06:30:05.057Z,22.85
2019-06-27T06:31:05.046Z,23.35
2019-06-27T06:32:05.096Z,23.86
2019-06-27T06:33:05.101Z,24.46
2019-06-27T06:34:05.534Z,25.17
2019-06-27T06:35:05.031Z,25.97
2019-06-27T06:36:04.996Z,26.81
2019-06-27T06:37:08.010Z,27.24
2019-06-27T06:38:04.974Z,27.80
2019-06-27T06:39:04.979Z,28.33
2019-06-27T06:40:05.037Z,28.95
2019-06-27T06:41:04.941Z,29.20
2019-06-27T06:42:04.923Z,29.20
2019-06-27T06:43:05.038Z,29.57
2019-06-27T06:44:04.990Z,29.71
2019-06-27T06:45:04.897Z,29.97
2019-06-27T06:46:04.945Z,30.48
2019-06-27T06:47:04.879Z,30.88
2019-06-27T06:48:04.881Z,31.42
2019-06-27T06:49:04.882Z,31.71
2019-06-27T06:50:04.854Z,31.79
2019-06-27T06:51:04.831Z,31.31
2019-06-27T06:52:05.028Z,31.53
2019-06-27T06:53:04.820Z,31.94
2019-06-27T06:54:04.801Z,31.98
2019-06-27T06:55:04.787Z,31.12
2019-06-27T06:56:04.778Z,31.03
2019-06-27T06:57:04.776Z,31.18
2019-06-27T06:58:04.780Z,31.49
2019-06-27T06:59:04.751Z,31.78
2019-06-27T07:00:04.740Z,32.09
2019-06-27T07:01:04.726Z,32.56
2019-06-27T07:02:04.720Z,32.93
2019-06-27T07:03:04.725Z,33.09
2019-06-27T07:04:04.805Z,33.43
2019-06-27T07:05:04.695Z,33.53
2019-06-27T07:06:04.681Z,33.59
2019-06-27T07:07:04.662Z,33.41
2019-06-27T07:08:04.677Z,32.81
2019-06-27T07:09:04.653Z,32.07
2019-06-27T07:10:04.653Z,32.13
2019-06-27T07:11:04.628Z,32.17
2019-06-27T07:12:04.615Z,32.12
2019-06-27T07:13:04.606Z,32.39
2019-06-27T07:14:04.614Z,32.58
2019-06-27T07:15:04.584Z,32.87
2019-06-27T07:16:04.576Z,32.91
2019-06-27T07:17:04.563Z,33.05
2019-06-27T07:18:04.558Z,33.38
2019-06-27T07:19:04.545Z,33.18
2019-06-27T07:20:04.611Z,32.83
2019-06-27T07:21:04.529Z,32.81
2019-06-27T07:22:04.518Z,32.83
2019-06-27T07:23:04.520Z,32.39
2019-06-27T07:24:04.503Z,32.17
2019-06-27T07:25:04.498Z,32.50
2019-06-27T07:26:04.496Z,32.62
2019-06-27T07:27:04.486Z,31.95
2019-06-27T07:28:04.463Z,31.60
2019-06-27T07:29:04.448Z,31.78
2019-06-27T07:30:04.440Z,31.76
2019-06-27T07:31:17.208Z,32.02
2019-06-27T07:32:05.413Z,32.25
2019-06-27T07:33:04.401Z,32.59
2019-06-27T07:34:04.401Z,32.83
2019-06-27T07:35:04.387Z,32.59
2019-06-27T07:36:04.413Z,32.05
2019-06-27T07:37:04.361Z,32.24
2019-06-27T07:38:04.354Z,32.40
2019-06-27T07:39:04.629Z,32.05
2019-06-27T07:40:04.342Z,31.85
2019-06-27T07:41:04.326Z,31.68
2019-06-27T07:42:04.346Z,31.72
2019-06-27T07:43:04.312Z,31.82
2019-06-27T07:44:04.289Z,31.71
2019-06-27T07:45:04.289Z,31.76
2019-06-27T07:46:04.306Z,31.97
2019-06-27T07:47:04.277Z,32.16
2019-06-27T07:48:04.257Z,32.76
2019-06-27T07:49:04.249Z,32.91
2019-06-27T07:50:04.232Z,32.91
2019-06-27T07:51:04.224Z,33.20
2019-06-27T07:52:04.236Z,33.33
2019-06-27T07:53:04.198Z,32.78
2019-06-27T07:54:04.193Z,32.63
2019-06-27T07:55:04.194Z,32.25
2019-06-27T07:56:04.174Z,32.54
2019-06-27T07:57:04.170Z,32.85
2019-06-27T07:58:04.173Z,33.15
2019-06-27T07:59:04.141Z,33.62
2019-06-27T08:00:04.150Z,33.93
2019-06-27T08:01:04.120Z,33.94
2019-06-27T08:02:04.111Z,33.92
2019-06-27T08:03:04.130Z,33.96
2019-06-27T08:04:04.096Z,33.82
2019-06-27T08:05:04.078Z,33.87
2019-06-27T08:06:04.067Z,34.00
2019-06-27T08:07:04.055Z,33.63
2019-06-27T08:08:04.046Z,33.74
2019-06-27T08:09:04.056Z,33.70
2019-06-27T08:10:04.035Z,33.52
2019-06-27T08:11:04.020Z,33.29
2019-06-27T08:12:04.007Z,33.28
2019-06-27T08:13:03.996Z,33.28
2019-06-27T08:14:03.984Z,33.62
2019-06-27T08:15:04.007Z,33.97
2019-06-27T08:16:03.970Z,34.45
2019-06-27T08:17:03.967Z,34.71
2019-06-27T08:18:03.945Z,35.06
2019-06-27T08:19:03.935Z,35.29
2019-06-27T08:20:03.930Z,34.81
2019-06-27T08:21:03.953Z,34.86
2019-06-27T08:22:03.903Z,34.42
2019-06-27T08:23:03.891Z,33.55
2019-06-27T08:24:03.882Z,33.57
2019-06-27T08:25:03.972Z,33.70
2019-06-27T08:26:03.870Z,33.92
2019-06-27T08:27:03.874Z,33.47
2019-06-27T08:28:03.855Z,32.81
2019-06-27T08:29:03.925Z,32.91
2019-06-27T08:30:07.182Z,33.05
2019-06-27T08:31:03.811Z,33.12
2019-06-27T08:32:03.801Z,33.09
2019-06-27T08:33:03.805Z,33.21
2019-06-27T08:34:03.785Z,33.00
2019-06-27T08:35:03.818Z,32.69
2019-06-27T08:36:03.926Z,32.39
2019-06-27T08:37:03.758Z,32.47
2019-06-27T08:38:03.748Z,32.58
2019-06-27T08:39:03.735Z,32.14
2019-06-27T08:40:03.730Z,31.75
2019-06-27T08:41:03.713Z,31.46
2019-06-27T08:42:03.731Z,31.47
2019-06-27T08:43:03.699Z,31.27
2019-06-27T08:44:03.686Z,31.13
2019-06-27T08:45:03.678Z,30.82
2019-06-27T08:46:03.682Z,30.48
2019-06-27T08:47:03.653Z,30.19
2019-06-27T08:48:03.637Z,30.11
2019-06-27T08:49:03.640Z,29.57
2019-06-27T08:50:03.626Z,29.12
2019-06-27T08:51:03.610Z,28.74
2019-06-27T08:52:03.617Z,28.65
2019-06-27T08:53:03.596Z,28.54
2019-06-27T08:54:03.636Z,28.25
2019-06-27T08:55:03.567Z,27.91
2019-06-27T08:56:03.573Z,27.81
2019-06-27T08:57:03.543Z,27.86
2019-06-27T08:58:03.570Z,27.74
2019-06-27T08:59:03.719Z,27.91
2019-06-27T09:00:03.519Z,27.91
2019-06-27T09:01:03.503Z,27.86
2019-06-27T09:02:08.297Z,27.65
2019-06-27T09:03:04.513Z,27.71
2019-06-27T09:04:03.473Z,27.84
2019-06-27T09:05:03.462Z,27.88
2019-06-27T09:06:03.471Z,27.77
2019-06-27T09:07:03.450Z,27.76
2019-06-27T09:08:03.430Z,27.86
2019-06-27T09:09:03.468Z,27.95
2019-06-27T09:10:03.415Z,28.09
2019-06-27T09:11:03.429Z,28.35
2019-06-27T09:12:03.411Z,28.45
2019-06-27T09:13:03.375Z,28.28
2019-06-27T09:14:03.383Z,27.83
2019-06-27T09:15:03.362Z,27.61
2019-06-27T09:16:03.364Z,27.52
2019-06-27T09:17:03.853Z,27.48
2019-06-27T09:18:03.330Z,27.21
2019-06-27T09:19:03.321Z,26.93
2019-06-27T09:20:03.302Z,26.78
2019-06-27T09:21:03.293Z,26.79
2019-06-27T09:22:03.416Z,26.88
2019-06-27T09:23:03.279Z,27.09
2019-06-27T09:24:03.267Z,27.13
2019-06-27T09:25:03.265Z,27.16
2019-06-27T09:26:03.265Z,27.25
2019-06-27T09:27:03.230Z,27.42
2019-06-27T09:28:03.266Z,27.63
2019-06-27T09:29:03.208Z,27.77
2019-06-27T09:30:03.197Z,27.81
2019-06-27T09:31:03.206Z,27.77
2019-06-27T09:32:03.178Z,27.83
2019-06-27T09:33:03.343Z,27.83
2019-06-27T09:34:03.653Z,27.90
2019-06-27T09:35:03.271Z,27.91
2019-06-27T09:36:03.130Z,27.88
2019-06-27T09:37:03.140Z,27.91
2019-06-27T09:38:03.117Z,27.84
2019-06-27T09:39:03.119Z,27.62
2019-06-27T09:40:03.122Z,27.49
2019-06-27T09:41:03.092Z,27.27
2019-06-27T09:42:03.434Z,27.25
2019-06-27T09:43:03.065Z,27.23
2019-06-27T09:44:03.054Z,27.20
2019-06-27T09:45:03.073Z,27.08
2019-06-27T09:46:03.057Z,26.97
2019-06-27T09:47:03.018Z,27.03
2019-06-27T09:48:03.006Z,27.21
2019-06-27T09:49:03.008Z,27.35
2019-06-27T09:50:02.994Z,27.63
2019-06-27T09:51:02.976Z,27.76
2019-06-27T09:52:03.373Z,27.84
2019-06-27T09:53:02.965Z,27.80
2019-06-27T09:54:02.939Z,27.84
2019-06-27T09:55:02.940Z,27.91
2019-06-27T09:56:02.922Z,27.99
2019-06-27T09:57:02.924Z,28.05
2019-06-27T09:58:02.928Z,28.08
2019-06-27T09:59:02.887Z,27.95
2019-06-27T10:00:02.909Z,27.76
2019-06-27T10:01:05.856Z,27.77
2019-06-27T10:02:02.864Z,27.72
2019-06-27T10:03:02.872Z,27.78
2019-06-27T10:04:04.250Z,27.80
2019-06-27T10:05:02.945Z,27.74
2019-06-27T10:06:03.051Z,27.72
2019-06-27T10:07:02.857Z,27.63
2019-06-27T10:08:02.799Z,27.61
2019-06-27T10:09:02.795Z,27.49
2019-06-27T10:10:02.788Z,27.27
2019-06-27T10:11:02.761Z,27.18
2019-06-27T10:12:02.771Z,27.08
2019-06-27T10:13:02.745Z,27.21
2019-06-27T10:14:02.730Z,27.30
2019-06-27T10:15:02.923Z,27.42
2019-06-27T10:16:02.711Z,27.49
2019-06-27T10:17:02.873Z,27.72
2019-06-27T10:18:02.743Z,27.81
2019-06-27T10:19:02.678Z,27.72
2019-06-27T10:20:02.663Z,27.66
2019-06-27T10:21:02.666Z,27.66
2019-06-27T10:22:24.440Z,27.74
2019-06-27T10:23:02.654Z,27.80
2019-06-27T10:24:02.644Z,27.77
2019-06-27T10:25:02.731Z,27.63
2019-06-27T10:26:02.602Z,27.46
2019-06-27T10:27:02.644Z,27.28
2019-06-27T10:28:02.580Z,27.35
2019-06-27T10:29:02.633Z,27.31
2019-06-27T10:30:02.787Z,27.33
2019-06-27T10:31:02.545Z,27.40
2019-06-27T10:32:02.534Z,27.52
2019-06-27T10:33:02.564Z,27.61
2019-06-27T10:34:02.541Z,27.68
2019-06-27T10:35:02.503Z,27.88
2019-06-27T10:36:02.493Z,27.96
2019-06-27T10:37:02.513Z,27.95
2019-06-27T10:38:02.477Z,27.86
2019-06-27T10:39:02.514Z,27.81
2019-06-27T10:40:02.455Z,27.71
2019-06-27T10:41:02.446Z,27.80
2019-06-27T10:42:02.428Z,27.91
2019-06-27T10:43:02.421Z,28.02
2019-06-27T10:44:02.427Z,28.13
2019-06-27T10:45:02.405Z,28.23
2019-06-27T10:46:02.541Z,28.24
2019-06-27T10:47:02.705Z,28.25
2019-06-27T10:48:02.378Z,28.14
2019-06-27T10:49:02.514Z,28.21
2019-06-27T10:50:02.502Z,28.18
2019-06-27T10:51:02.850Z,28.20
2019-06-27T10:52:02.344Z,28.24
2019-06-27T10:53:02.349Z,28.38
2019-06-27T10:54:02.396Z,28.39
2019-06-27T10:55:02.292Z,28.15
2019-06-27T10:56:02.280Z,28.03
2019-06-27T10:57:02.271Z,28.02
2019-06-27T10:58:02.259Z,27.93
2019-06-27T10:59:02.310Z,28.01
2019-06-27T11:00:02.257Z,27.88
2019-06-27T11:01:02.271Z,27.78
2019-06-27T11:02:02.221Z,27.78
2019-06-27T11:03:14.859Z,27.71
2019-06-27T11:04:03.194Z,27.68
2019-06-27T11:05:02.185Z,27.65
2019-06-27T11:06:02.190Z,27.74
2019-06-27T11:07:02.161Z,27.76
2019-06-27T11:08:02.210Z,27.63
2019-06-27T11:09:02.188Z,27.43
2019-06-27T11:10:02.154Z,27.39
2019-06-27T11:11:02.149Z,27.40
2019-06-27T11:12:02.271Z,27.45
2019-06-27T11:13:02.156Z,27.62
2019-06-27T11:14:02.085Z,27.52
2019-06-27T11:15:02.076Z,27.42
2019-06-27T11:16:02.070Z,27.50
2019-06-27T11:17:02.054Z,27.59
2019-06-27T11:18:02.094Z,27.76
2019-06-27T11:19:02.032Z,27.91
2019-06-27T11:20:02.134Z,27.87
2019-06-27T11:21:02.012Z,27.81
2019-06-27T11:22:02.021Z,27.69
2019-06-27T11:23:02.029Z,27.62
2019-06-27T11:24:02.459Z,27.62
2019-06-27T11:25:02.137Z,27.68
2019-06-27T11:26:01.962Z,27.46
2019-06-27T11:27:02.247Z,27.24
2019-06-27T11:28:01.934Z,27.30
2019-06-27T11:29:01.960Z,27.31
2019-06-27T11:30:01.925Z,27.38
2019-06-27T11:31:01.902Z,27.65
2019-06-27T11:32:01.912Z,27.87
2019-06-27T11:33:01.901Z,28.02
2019-06-27T11:34:01.873Z,28.05
2019-06-27T11:35:01.925Z,28.08
2019-06-27T11:36:01.868Z,28.24
2019-06-27T11:37:01.869Z,28.17
2019-06-27T11:38:01.831Z,28.11
2019-06-27T11:39:01.818Z,27.99
2019-06-27T11:40:01.824Z,28.01
2019-06-27T11:41:01.919Z,28.05
2019-06-27T11:42:01.787Z,27.98
2019-06-27T11:43:01.859Z,27.99
2019-06-27T11:44:01.767Z,27.87
2019-06-27T11:45:01.756Z,27.90
2019-06-27T11:46:01.754Z,27.95
2019-06-27T11:47:01.788Z,27.95
2019-06-27T11:48:01.727Z,27.88
2019-06-27T11:49:01.720Z,28.03
2019-06-27T11:50:01.717Z,28.21
2019-06-27T11:51:01.695Z,28.14
2019-06-27T11:52:01.680Z,28.13
2019-06-27T11:53:01.686Z,28.09
2019-06-27T11:54:01.674Z,28.11
2019-06-27T11:55:01.711Z,28.01
2019-06-27T11:56:01.639Z,27.93
2019-06-27T11:57:01.645Z,27.93
2019-06-27T11:58:01.616Z,27.80
2019-06-27T11:59:01.626Z,27.80
2019-06-27T12:00:01.731Z,27.74
2019-06-27T12:01:01.585Z,27.78
2019-06-27T12:02:01.575Z,27.74
2019-06-27T12:03:01.564Z,27.77
2019-06-27T12:04:01.583Z,27.83
2019-06-27T12:05:01.545Z,27.86
2019-06-27T12:06:01.530Z,27.72
2019-06-27T12:07:01.536Z,27.86
2019-06-27T12:08:01.529Z,27.84
2019-06-27T12:09:01.497Z,27.86
2019-06-27T12:10:01.505Z,27.88
2019-06-27T12:11:01.482Z,27.98
2019-06-27T12:12:01.498Z,28.02
2019-06-27T12:13:01.476Z,28.05
2019-06-27T12:14:01.447Z,28.18
2019-06-27T12:15:01.441Z,28.18
2019-06-27T12:16:01.424Z,28.14
2019-06-27T12:17:01.418Z,28.09
2019-06-27T12:18:01.422Z,28.05
2019-06-27T12:19:01.391Z,28.09
2019-06-27T12:20:01.401Z,28.09
2019-06-27T12:21:01.369Z,28.14
2019-06-27T12:22:01.370Z,28.24
2019-06-27T12:23:01.378Z,28.28
2019-06-27T12:24:01.336Z,28.15
2019-06-27T12:25:01.367Z,28.13
2019-06-27T12:26:01.341Z,28.40
2019-06-27T12:27:01.303Z,28.39
2019-06-27T12:28:01.337Z,28.54
2019-06-27T12:29:01.283Z,28.62
2019-06-27T12:30:01.297Z,28.51
2019-06-27T12:31:01.321Z,28.48
2019-06-27T12:32:01.378Z,28.35
2019-06-27T12:33:01.243Z,28.24
2019-06-27T12:34:07.016Z,28.11
2019-06-27T12:35:02.242Z,27.91
2019-06-27T12:36:01.208Z,27.86
2019-06-27T12:37:01.201Z,27.78
2019-06-27T12:38:01.186Z,27.74
2019-06-27T12:39:01.183Z,27.68
2019-06-27T12:40:01.170Z,27.62
2019-06-27T12:41:01.174Z,27.72
2019-06-27T12:42:01.154Z,27.76
2019-06-27T12:43:01.137Z,27.93
2019-06-27T12:44:01.124Z,27.93
2019-06-27T12:45:01.112Z,27.98
2019-06-27T12:46:01.102Z,27.99
2019-06-27T12:47:01.123Z,28.11
2019-06-27T12:48:06.996Z,28.15
2019-06-27T12:49:02.085Z,28.36
2019-06-27T12:50:03.100Z,28.43
2019-06-27T12:51:01.049Z,28.52
2019-06-27T12:52:01.037Z,28.57